Time;durP1;ratioP1;P1;durP2;ratioP2;P2;SDS_P1;SDS_P2;PMS_P1;PMS_P2;Temp;Humidity;BMP_temperature;BMP_pressure;BME280_temperature;BME280_humidity;BME280_pressure;Samples;Min_cycle;Max_cycle;Signal;HPM_P1;HPM_P2
2023/01/16 00:01:29;;;;;;;5.40;4.30;;;;;;;4.49;85.25;99379.95;108403;1276;175011;-75
2023/01/16 00:04:03;;;;;;;5.90;4.60;;;;;;;4.48;85.09;99380.32;108535;1276;172820;-75
2023/01/16 00:06:36;;;;;;;6.70;4.10;;;;;;;4.46;85.07;99380.73;108650;1268;37192;-75
2023/01/16 00:09:07;;;;;;;5.80;4.20;;;;;;;4.44;85.02;99379.06;108677;1266;38568;-75
2023/01/16 00:11:38;;;;;;;5.70;4.20;;;;;;;4.42;84.89;99377.07;108580;1262;36276;-73
2023/01/16 00:14:09;;;;;;;6.90;4.50;;;;;;;4.41;85.00;99376.55;108790;1259;37265;-75
2023/01/16 00:16:40;;;;;;;6.00;4.50;;;;;;;4.38;84.77;99368.52;108941;1266;36287;-76
2023/01/16 00:19:10;;;;;;;5.10;4.00;;;;;;;4.35;84.76;99367.75;108710;1268;36225;-76
2023/01/16 00:21:47;;;;;;;6.70;4.30;;;;;;;4.33;84.94;99372.63;108663;1276;37024;-76
2023/01/16 00:24:18;;;;;;;5.80;4.30;;;;;;;4.31;84.92;99373.58;108649;1258;37191;-76
2023/01/16 00:26:53;;;;;;;4.90;3.70;;;;;;;4.28;84.76;99377.96;108489;1267;37043;-75
2023/01/16 00:29:27;;;;;;;5.70;4.00;;;;;;;4.23;84.97;99373.61;108512;1265;37686;-75
2023/01/16 00:32:03;;;;;;;5.80;3.80;;;;;;;4.17;84.78;99378.29;108676;1263;36674;-75
2023/01/16 00:34:36;;;;;;;5.20;3.30;;;;;;;4.14;85.08;99381.65;108684;1276;36315;-74
2023/01/16 00:37:07;;;;;;;7.40;4.10;;;;;;;4.11;85.04;99383.61;108654;1260;37287;-74
2023/01/16 00:39:39;;;;;;;6.00;3.90;;;;;;;4.08;84.91;99384.89;108617;1258;37064;-75
2023/01/16 00:42:10;;;;;;;6.30;4.40;;;;;;;4.06;85.09;99387.71;108602;1264;37143;-75
2023/01/16 00:44:41;;;;;;;5.50;3.70;;;;;;;4.03;85.27;99384.69;108646;1259;38761;-75
2023/01/16 00:47:12;;;;;;;6.30;4.10;;;;;;;3.99;84.90;99390.68;108637;1254;37170;-75
2023/01/16 00:49:43;;;;;;;6.00;3.90;;;;;;;3.94;85.17;99395.13;108511;1256;37441;-75
2023/01/16 00:52:15;;;;;;;5.90;3.60;;;;;;;3.90;84.94;99391.94;108492;1276;37580;-76
2023/01/16 00:54:47;;;;;;;5.60;4.00;;;;;;;3.87;84.99;99394.27;108656;1268;37309;-75
2023/01/16 00:57:18;;;;;;;4.60;3.70;;;;;;;3.84;85.07;99396.93;108604;1276;37209;-75
2023/01/16 00:59:49;;;;;;;6.60;4.10;;;;;;;3.82;85.31;99396.30;108653;1270;37231;-76
2023/01/16 01:02:20;;;;;;;4.70;3.60;;;;;;;3.76;85.54;99393.52;108613;1258;36155;-75
2023/01/16 01:04:51;;;;;;;6.00;3.60;;;;;;;3.73;85.66;99394.13;108546;1256;37314;-75
2023/01/16 01:07:25;;;;;;;5.20;3.40;;;;;;;3.70;85.67;99392.84;108629;1254;37558;-75
2023/01/16 01:09:56;;;;;;;6.00;3.60;;;;;;;3.69;85.71;99390.27;108644;1260;36100;-75
2023/01/16 01:12:27;;;;;;;6.80;4.10;;;;;;;3.67;85.70;99394.27;108672;1276;36894;-75
2023/01/16 01:14:58;;;;;;;6.40;4.20;;;;;;;3.65;86.17;99390.90;108610;1276;37159;-75
2023/01/16 01:17:29;;;;;;;4.80;3.80;;;;;;;3.62;86.05;99385.61;108475;1254;37484;-75
2023/01/16 01:20:01;;;;;;;6.70;3.70;;;;;;;3.61;86.26;99389.26;108626;1267;37095;-75
2023/01/16 01:22:34;;;;;;;4.60;3.70;;;;;;;3.59;86.28;99389.30;108632;1270;36300;-76
2023/01/16 01:25:06;;;;;;;7.10;4.60;;;;;;;3.57;86.26;99384.71;108657;1265;37598;-74
2023/01/16 01:27:41;;;;;;;7.20;4.30;;;;;;;3.57;86.31;99385.73;108609;1267;37116;-75
2023/01/16 01:30:14;;;;;;;5.60;4.20;;;;;;;3.56;86.50;99386.80;108622;1270;37166;-75
2023/01/16 01:32:45;;;;;;;5.10;4.10;;;;;;;3.52;86.39;99385.86;108521;1266;175075;-75
2023/01/16 01:35:19;;;;;;;6.30;3.90;;;;;;;3.49;86.49;99386.30;108581;1269;37499;-74
2023/01/16 01:37:51;;;;;;;5.10;3.70;;;;;;;3.48;86.48;99387.19;108612;1254;37138;-74
2023/01/16 01:40:25;;;;;;;5.00;4.00;;;;;;;3.49;86.44;99380.42;108671;1254;36111;-76
2023/01/16 01:42:56;;;;;;;5.30;4.20;;;;;;;3.50;86.59;99375.23;108599;1266;37283;-75
2023/01/16 01:45:28;;;;;;;5.70;4.20;;;;;;;3.50;86.61;99372.30;108689;1276;36765;-74
2023/01/16 01:48:15;;;;;;;6.20;4.20;;;;;;;3.48;86.50;99373.55;108637;1257;37389;-73
2023/01/16 01:50:52;;;;;;;5.60;3.50;;;;;;;3.43;86.24;99372.83;108676;1267;37117;-74
2023/01/16 01:53:26;;;;;;;5.50;4.10;;;;;;;3.40;86.53;99375.83;108630;1258;36982;-74
2023/01/16 01:55:59;;;;;;;6.20;4.30;;;;;;;3.39;86.44;99372.58;108667;1261;37123;-74
2023/01/16 01:58:36;;;;;;;5.20;3.80;;;;;;;3.38;86.66;99365.34;108642;1259;36193;-75
2023/01/16 02:01:11;;;;;;;5.00;4.10;;;;;;;3.38;86.52;99362.60;108559;1276;37337;-76
2023/01/16 02:03:46;;;;;;;6.20;3.90;;;;;;;3.34;86.59;99362.88;108590;1276;36101;-75
2023/01/16 02:06:20;;;;;;;5.70;3.50;;;;;;;3.28;86.63;99372.50;108684;1274;38276;-73
2023/01/16 02:08:54;;;;;;;5.70;4.00;;;;;;;3.25;86.49;99374.13;108643;1276;38478;-75
2023/01/16 02:11:32;;;;;;;5.10;3.90;;;;;;;3.24;86.51;99373.63;108658;1258;37307;-74
2023/01/16 02:14:06;;;;;;;4.50;3.40;;;;;;;3.21;86.28;99370.94;108599;1257;37091;-75
2023/01/16 02:19:37;;;;;;;4.90;3.50;;;;;;;3.09;86.23;99367.09;108647;1268;37165;-75
2023/01/16 02:22:29;;;;;;;4.80;3.40;;;;;;;3.03;86.22;99363.95;107807;1261;914522;-75
2023/01/16 02:25:36;;;;;;;6.70;4.00;;;;;;;2.97;86.00;99365.64;108656;1265;37193;-75
2023/01/16 02:29:11;;;;;;;5.00;3.60;;;;;;;2.90;86.36;99362.02;108672;1258;37684;-74
2023/01/16 02:31:45;;;;;;;6.70;4.40;;;;;;;2.81;86.36;99360.50;107912;1267;36346;-75
2023/01/16 02:34:28;;;;;;;5.90;4.10;;;;;;;2.74;86.55;99364.10;108418;1260;36776;-75
2023/01/16 02:37:14;;;;;;;6.00;3.80;;;;;;;2.70;86.51;99364.20;108426;1276;175090;-75
2023/01/16 02:39:48;;;;;;;4.80;3.60;;;;;;;2.67;86.43;99356.36;108703;1254;37236;-75
2023/01/16 02:42:27;;;;;;;5.50;3.90;;;;;;;2.64;86.50;99357.11;108648;1257;37082;-74
2023/01/16 02:45:02;;;;;;;5.90;4.40;;;;;;;2.61;86.49;99357.16;108378;1276;37149;-75
2023/01/16 02:47:41;;;;;;;5.90;4.10;;;;;;;2.57;86.59;99356.21;108625;1257;37293;-75
2023/01/16 02:50:20;;;;;;;5.40;4.00;;;;;;;2.54;86.67;99356.63;108766;1276;36317;-74
2023/01/16 02:52:56;;;;;;;5.90;3.80;;;;;;;2.51;86.65;99355.82;108764;1276;36293;-74
2023/01/16 02:55:34;;;;;;;6.70;4.10;;;;;;;2.49;86.66;99354.33;108746;1257;36982;-76
2023/01/16 02:58:07;;;;;;;6.60;4.60;;;;;;;2.47;86.59;99353.17;108649;1261;37581;-74
2023/01/16 03:00:38;;;;;;;4.50;4.00;;;;;;;2.44;86.77;99354.94;108707;1267;37086;-74
2023/01/16 03:03:23;;;;;;;6.80;4.20;;;;;;;2.43;86.92;99354.97;108479;1276;36984;-74
2023/01/16 03:05:55;;;;;;;7.20;4.20;;;;;;;2.38;86.64;99353.17;108420;1272;37063;-74
2023/01/16 03:08:34;;;;;;;6.20;3.90;;;;;;;2.33;86.92;99351.20;108513;1270;37174;-74
2023/01/16 03:11:22;;;;;;;6.40;4.40;;;;;;;2.28;86.78;99352.35;108491;1267;37557;-74
2023/01/16 03:14:13;;;;;;;6.70;4.50;;;;;;;2.26;87.18;99352.39;107802;1276;914802;-75
2023/01/16 03:16:53;;;;;;;7.00;4.90;;;;;;;2.25;87.44;99356.20;108647;1259;36954;-75
2023/01/16 03:19:33;;;;;;;5.50;4.20;;;;;;;2.24;87.70;99356.05;108537;1265;37226;-74
2023/01/16 03:22:12;;;;;;;8.40;4.10;;;;;;;2.22;87.54;99353.69;108637;1267;37100;-73
2023/01/16 03:25:06;;;;;;;6.20;4.30;;;;;;;2.20;87.49;99352.19;108638;1257;36195;-75
2023/01/16 03:27:46;;;;;;;7.40;4.40;;;;;;;2.20;87.67;99355.29;108490;1265;37053;-74
2023/01/16 03:30:23;;;;;;;7.00;4.70;;;;;;;2.20;87.96;99356.30;108465;1259;37956;-73
2023/01/16 03:32:57;;;;;;;7.70;4.80;;;;;;;2.19;88.05;99356.67;108452;1260;37266;-74
2023/01/16 03:35:32;;;;;;;5.50;4.30;;;;;;;2.17;87.82;99357.41;108652;1257;37004;-74
2023/01/16 03:38:07;;;;;;;7.10;4.20;;;;;;;2.13;88.06;99358.69;108602;1276;37343;-74
2023/01/16 03:40:41;;;;;;;6.00;4.20;;;;;;;2.10;88.13;99358.06;108670;1257;37228;-73
2023/01/16 03:43:14;;;;;;;5.80;4.10;;;;;;;2.09;88.18;99359.46;108550;1276;37066;-73
2023/01/16 03:45:52;;;;;;;6.60;4.70;;;;;;;2.09;88.17;99360.15;108644;1266;38498;-75
2023/01/16 03:48:28;;;;;;;7.50;5.00;;;;;;;2.07;88.26;99358.27;108595;1259;36607;-74
2023/01/16 03:51:06;;;;;;;6.70;4.50;;;;;;;2.06;88.50;99361.41;108522;1257;187696;-74
2023/01/16 03:53:47;;;;;;;6.30;4.60;;;;;;;2.05;88.49;99356.27;108603;1276;37260;-73
2023/01/16 03:56:21;;;;;;;5.60;4.40;;;;;;;2.03;88.67;99356.12;108518;1267;38553;-75
2023/01/16 03:58:55;;;;;;;7.60;5.80;;;;;;;2.03;88.62;99352.49;108615;1270;37078;-75
2023/01/16 04:01:30;;;;;;;7.90;5.60;;;;;;;2.03;88.76;99350.97;108542;1274;37206;-74
2023/01/16 04:04:07;;;;;;;7.50;5.70;;;;;;;2.02;88.71;99344.95;108463;1269;36191;-74
2023/01/16 04:06:44;;;;;;;7.40;5.50;;;;;;;2.01;88.95;99346.38;108621;1257;37531;-74
2023/01/16 04:09:19;;;;;;;7.70;5.10;;;;;;;1.99;88.93;99349.31;108634;1276;36089;-74
2023/01/16 04:11:50;;;;;;;6.60;5.20;;;;;;;1.98;89.03;99354.51;108651;1257;36968;-73
2023/01/16 04:14:24;;;;;;;7.50;5.20;;;;;;;1.97;89.09;99354.70;108631;1259;36981;-73
2023/01/16 04:16:55;;;;;;;6.70;5.40;;;;;;;1.97;89.00;99355.73;108639;1265;37503;-71
2023/01/16 04:19:26;;;;;;;7.90;5.30;;;;;;;1.96;89.01;99356.44;108559;1261;36166;-74
2023/01/16 04:21:57;;;;;;;8.50;5.90;;;;;;;1.95;89.12;99353.52;108594;1271;37464;-74
2023/01/16 04:24:30;;;;;;;9.30;5.30;;;;;;;1.94;89.00;99350.63;108492;1261;38434;-74
2023/01/16 04:27:02;;;;;;;7.20;5.30;;;;;;;1.92;88.91;99355.65;108548;1252;175145;-75
2023/01/16 04:29:34;;;;;;;7.00;5.50;;;;;;;1.90;88.71;99352.59;108664;1271;36864;-75
2023/01/16 04:32:08;;;;;;;7.90;5.80;;;;;;;1.90;89.00;99350.86;108589;1276;39181;-75
2023/01/16 04:34:39;;;;;;;8.20;5.80;;;;;;;1.88;88.98;99347.46;108637;1260;37107;-75
2023/01/16 04:37:10;;;;;;;7.30;5.60;;;;;;;1.83;88.90;99352.39;108615;1258;38425;-75
2023/01/16 04:39:42;;;;;;;9.30;6.30;;;;;;;1.79;88.87;99356.41;108579;1260;37597;-75
2023/01/16 04:42:13;;;;;;;9.00;6.00;;;;;;;1.78;89.11;99358.84;108443;1257;40369;-74
2023/01/16 04:44:44;;;;;;;6.40;5.00;;;;;;;1.78;89.17;99359.86;108617;1253;37103;-74
2023/01/16 04:47:15;;;;;;;8.00;5.60;;;;;;;1.78;89.14;99362.98;108608;1258;36474;-74
2023/01/16 04:49:46;;;;;;;9.60;6.80;;;;;;;1.78;89.33;99367.45;108447;1253;174828;-74
2023/01/16 04:52:19;;;;;;;9.20;5.80;;;;;;;1.76;89.30;99371.95;108605;1276;37082;-74
2023/01/16 04:54:50;;;;;;;7.60;5.60;;;;;;;1.74;89.20;99375.24;108622;1257;37100;-74
2023/01/16 04:57:22;;;;;;;7.20;5.70;;;;;;;1.74;89.30;99371.46;108502;1267;36371;-74
2023/01/16 04:59:53;;;;;;;7.30;5.80;;;;;;;1.76;89.47;99371.75;108635;1253;37105;-74
2023/01/16 05:02:24;;;;;;;8.80;6.20;;;;;;;1.78;89.40;99371.39;108619;1258;37823;-74
2023/01/16 05:04:55;;;;;;;8.30;6.20;;;;;;;1.79;89.41;99369.66;108600;1257;37063;-74
2023/01/16 05:07:28;;;;;;;8.70;6.20;;;;;;;1.78;89.42;99371.39;108600;1276;37324;-74
2023/01/16 05:10:02;;;;;;;7.20;5.80;;;;;;;1.76;89.35;99371.95;108636;1276;37468;-74
2023/01/16 05:12:35;;;;;;;8.50;6.10;;;;;;;1.74;89.22;99371.64;108472;1276;38240;-73
2023/01/16 05:15:10;;;;;;;6.80;5.30;;;;;;;1.73;89.28;99372.68;108388;1276;36079;-73
2023/01/16 05:17:43;;;;;;;7.80;6.10;;;;;;;1.69;89.03;99370.16;108610;1276;38346;-73
2023/01/16 05:20:18;;;;;;;7.50;6.30;;;;;;;1.66;89.06;99365.42;108578;1257;37006;-74
2023/01/16 05:22:56;;;;;;;9.60;6.60;;;;;;;1.62;89.07;99359.31;108598;1265;37625;-74
2023/01/16 05:25:26;;;;;;;8.20;5.60;;;;;;;1.56;89.08;99352.89;108614;1252;38007;-73
2023/01/16 05:27:58;;;;;;;9.70;6.20;;;;;;;1.53;89.12;99350.00;108570;1276;37375;-74
2023/01/16 05:30:29;;;;;;;9.30;6.00;;;;;;;1.53;89.10;99358.26;108647;1258;37167;-75
2023/01/16 05:33:04;;;;;;;9.60;6.40;;;;;;;1.52;89.17;99353.45;108515;1261;37149;-73
2023/01/16 05:35:35;;;;;;;9.10;6.10;;;;;;;1.52;89.33;99346.41;108568;1257;37417;-74
2023/01/16 05:38:06;;;;;;;7.90;6.20;;;;;;;1.52;89.32;99345.73;108559;1260;36167;-73
2023/01/16 05:40:38;;;;;;;7.40;5.80;;;;;;;1.50;89.29;99347.48;108626;1253;37713;-74
2023/01/16 05:43:12;;;;;;;8.50;6.00;;;;;;;1.50;89.34;99346.63;108591;1276;37060;-72
2023/01/16 05:45:43;;;;;;;7.60;5.60;;;;;;;1.52;89.59;99353.98;108417;1260;36881;-74
2023/01/16 05:48:17;;;;;;;7.80;5.60;;;;;;;1.52;89.40;99350.54;108639;1276;37049;-73
2023/01/16 05:50:50;;;;;;;6.90;5.90;;;;;;;1.52;89.58;99354.31;108636;1253;36149;-73
2023/01/16 05:53:22;;;;;;;8.40;5.80;;;;;;;1.50;89.24;99351.95;108367;1260;36491;-74
2023/01/16 05:55:55;;;;;;;6.90;5.40;;;;;;;1.48;89.24;99348.90;108671;1257;36986;-72
2023/01/16 05:58:28;;;;;;;7.70;5.70;;;;;;;1.45;89.12;99346.03;108691;1257;37167;-74
2023/01/16 06:01:01;;;;;;;6.80;5.10;;;;;;;1.44;89.09;99340.53;108631;1269;38101;-75
2023/01/16 06:03:32;;;;;;;8.00;6.10;;;;;;;1.42;89.16;99342.14;108644;1257;37166;-73
2023/01/16 06:06:11;;;;;;;5.90;5.10;;;;;;;1.42;89.23;99337.30;108643;1256;38454;-76
2023/01/16 06:08:46;;;;;;;7.40;5.50;;;;;;;1.39;89.15;99332.38;108658;1256;36988;-75
2023/01/16 06:11:19;;;;;;;6.50;5.30;;;;;;;1.37;89.15;99333.62;108733;1265;35984;-75
2023/01/16 06:13:51;;;;;;;6.50;4.90;;;;;;;1.36;89.24;99326.94;108611;1276;37543;-71
2023/01/16 06:16:24;;;;;;;6.70;4.80;;;;;;;1.38;89.25;99324.52;108633;1265;36988;-73
2023/01/16 06:18:56;;;;;;;7.00;5.20;;;;;;;1.39;89.33;99323.63;108666;1267;37243;-72
2023/01/16 06:21:29;;;;;;;7.40;5.20;;;;;;;1.40;89.33;99325.31;108633;1255;37098;-73
2023/01/16 06:24:01;;;;;;;7.40;4.90;;;;;;;1.41;89.20;99332.01;108672;1265;37005;-72
2023/01/16 06:26:35;;;;;;;6.70;4.70;;;;;;;1.41;89.26;99336.64;108644;1276;37077;-71
2023/01/16 06:29:06;;;;;;;5.80;4.40;;;;;;;1.42;89.14;99334.73;108599;1276;36190;-71
2023/01/16 06:31:38;;;;;;;5.30;4.40;;;;;;;1.44;89.16;99338.33;108649;1265;37091;-73
2023/01/16 06:34:09;;;;;;;7.00;5.40;;;;;;;1.44;89.11;99339.52;108639;1258;37458;-72
2023/01/16 06:36:45;;;;;;;6.90;4.80;;;;;;;1.46;89.24;99334.65;108630;1253;37439;-73
2023/01/16 06:39:22;;;;;;;6.90;4.50;;;;;;;1.48;89.16;99334.29;108612;1265;36084;-72
2023/01/16 06:41:58;;;;;;;6.60;4.60;;;;;;;1.48;89.34;99332.21;108671;1257;38289;-71
2023/01/16 06:44:39;;;;;;;7.30;5.00;;;;;;;1.51;89.23;99334.73;108671;1276;37115;-71
2023/01/16 06:47:15;;;;;;;6.80;5.00;;;;;;;1.55;89.16;99340.00;108634;1257;37087;-73
2023/01/16 06:49:49;;;;;;;7.40;5.00;;;;;;;1.58;89.14;99337.89;108634;1257;37361;-72
2023/01/16 06:52:24;;;;;;;7.30;4.80;;;;;;;1.61;89.18;99337.49;108333;1264;37230;-73
2023/01/16 06:54:56;;;;;;;6.70;4.70;;;;;;;1.60;88.95;99336.14;108655;1256;37398;-74
2023/01/16 06:57:28;;;;;;;6.90;4.60;;;;;;;1.59;88.79;99336.83;108677;1257;36954;-73
2023/01/16 07:00:02;;;;;;;8.30;4.80;;;;;;;1.60;89.03;99338.73;108633;1271;36146;-72
2023/01/16 07:02:39;;;;;;;7.30;4.40;;;;;;;1.64;88.84;99341.92;108439;1277;37032;-71
2023/01/16 07:05:11;;;;;;;6.30;4.40;;;;;;;1.66;89.01;99336.55;108515;1261;38704;-72
2023/01/16 07:07:44;;;;;;;7.80;5.50;;;;;;;1.68;88.93;99340.13;108508;1258;175148;-73
2023/01/16 07:10:20;;;;;;;5.60;4.30;;;;;;;1.69;88.85;99343.89;108702;1257;36338;-73
2023/01/16 07:12:55;;;;;;;5.90;3.80;;;;;;;1.70;88.77;99341.45;108674;1260;36665;-73
2023/01/16 07:24:03;;;;;;;6.20;4.80;;;;;;;1.83;88.77;99330.73;108623;1276;36041;-72
2023/01/16 07:26:39;;;;;;;7.20;4.90;;;;;;;1.86;88.68;99334.42;108501;1276;175213;-71
2023/01/16 07:29:14;;;;;;;6.70;4.30;;;;;;;1.90;88.48;99331.79;108609;1276;37076;-73
2023/01/16 07:31:46;;;;;;;7.10;4.60;;;;;;;1.95;88.63;99333.23;108612;1261;36422;-73
2023/01/16 07:34:18;;;;;;;6.80;4.50;;;;;;;2.06;88.81;99323.88;108613;1257;37049;-73
2023/01/16 07:36:54;;;;;;;6.80;4.70;;;;;;;2.20;88.86;99323.94;108644;1276;38807;-73
2023/01/16 07:39:29;;;;;;;8.60;5.00;;;;;;;2.28;88.41;99328.78;108262;1276;473856;-74
2023/01/16 07:42:04;;;;;;;6.60;4.80;;;;;;;2.40;88.36;99329.55;108051;1276;927464;-73
2023/01/16 07:44:40;;;;;;;6.90;4.00;;;;;;;2.55;88.31;99323.55;108731;1276;37102;-73
2023/01/16 07:47:12;;;;;;;6.40;4.30;;;;;;;2.64;88.14;99320.60;108643;1276;38368;-73
2023/01/16 07:49:45;;;;;;;6.20;4.60;;;;;;;2.76;87.93;99322.55;108673;1258;37266;-74
2023/01/16 07:52:18;;;;;;;6.80;5.10;;;;;;;2.88;87.70;99319.34;107986;1265;915161;-73
2023/01/16 07:54:50;;;;;;;6.00;4.70;;;;;;;2.93;87.05;99321.98;108645;1274;37271;-74
2023/01/16 07:57:21;;;;;;;8.00;5.30;;;;;;;2.98;86.97;99323.59;108635;1252;37309;-74
2023/01/16 07:59:52;;;;;;;7.40;4.40;;;;;;;3.18;87.25;99319.30;108657;1257;37142;-76
2023/01/16 08:02:26;;;;;;;6.70;4.60;;;;;;;3.37;87.17;99321.42;108541;1253;175095;-75
2023/01/16 08:05:00;;;;;;;7.30;5.00;;;;;;;3.55;86.49;99317.14;108556;1258;37996;-74
2023/01/16 08:07:32;;;;;;;7.80;5.50;;;;;;;3.68;86.10;99309.05;108596;1254;37077;-75
2023/01/16 08:10:09;;;;;;;7.90;5.70;;;;;;;3.74;85.28;99307.67;108645;1257;37678;-72
2023/01/16 08:12:47;;;;;;;8.80;5.80;;;;;;;3.72;84.66;99310.31;108625;1253;37232;-74
2023/01/16 08:15:22;;;;;;;8.70;5.80;;;;;;;3.67;84.11;99307.04;108595;1265;37001;-74
2023/01/16 08:17:55;;;;;;;10.90;6.60;;;;;;;3.56;83.60;99305.90;108470;1263;37525;-74
2023/01/16 08:20:32;;;;;;;9.20;5.80;;;;;;;3.54;83.83;99305.48;108638;1265;36141;-74
2023/01/16 08:23:08;;;;;;;13.00;6.80;;;;;;;3.50;83.62;99306.44;108820;1268;36159;-72
2023/01/16 08:25:39;;;;;;;10.60;7.10;;;;;;;3.45;83.65;99304.14;108820;1265;37081;-74
2023/01/16 08:28:17;;;;;;;13.60;7.60;;;;;;;3.45;83.77;99306.03;108829;1276;37007;-74
2023/01/16 08:30:51;;;;;;;10.70;7.60;;;;;;;3.42;83.10;99303.02;108675;1276;36643;-73
2023/01/16 08:33:22;;;;;;;13.90;8.30;;;;;;;3.37;83.58;99302.29;108633;1270;36298;-73
2023/01/16 08:35:58;;;;;;;12.30;6.80;;;;;;;3.35;83.42;99300.63;108476;1260;36957;-73
2023/01/16 08:38:34;;;;;;;10.70;6.60;;;;;;;3.35;83.53;99305.45;108663;1257;38068;-73
2023/01/16 08:51:21;;;;;;;11.50;7.40;;;;;;;3.39;83.50;99302.94;108654;1273;36961;-74
2023/01/16 08:52:39;;;;;;;9.40;6.00;;;;;;;3.52;83.84;99301.21;108675;1258;37605;-74
2023/01/16 08:55:11;;;;;;;11.30;6.50;;;;;;;3.61;84.10;99295.60;108766;1258;36156;-75
2023/01/16 08:57:45;;;;;;;10.30;6.40;;;;;;;3.73;84.10;99293.75;108615;1257;36279;-74
2023/01/16 09:00:21;;;;;;;9.90;6.00;;;;;;;3.83;84.03;99292.08;108655;1276;37020;-75
2023/01/16 09:02:53;;;;;;;10.00;5.60;;;;;;;3.88;82.99;99285.52;108591;1276;37141;-74
2023/01/16 09:05:24;;;;;;;7.50;4.90;;;;;;;3.95;83.45;99282.94;108611;1276;37473;-74
2023/01/16 09:07:55;;;;;;;6.50;4.50;;;;;;;4.02;83.31;99280.66;108624;1258;36143;-74
2023/01/16 09:10:27;;;;;;;8.70;5.20;;;;;;;4.10;83.34;99275.59;108659;1257;37109;-74
2023/01/16 09:15:49;;;;;;;9.10;4.70;;;;;;;4.31;82.51;99267.39;108619;1252;37252;-74
2023/01/16 09:18:20;;;;;;;9.10;4.60;;;;;;;4.39;82.31;99268.34;108609;1258;36337;-75
2023/01/16 09:20:51;;;;;;;7.70;4.50;;;;;;;4.44;82.03;99265.96;108676;1257;37090;-74
2023/01/16 09:23:23;;;;;;;7.10;4.30;;;;;;;4.49;81.98;99264.75;108649;1253;37066;-74
2023/01/16 09:25:58;;;;;;;8.20;4.90;;;;;;;4.54;80.88;99264.11;108511;1276;37423;-74
2023/01/16 09:28:33;;;;;;;10.30;4.40;;;;;;;4.52;80.65;99259.32;108661;1261;37183;-74
2023/01/16 09:31:04;;;;;;;5.90;4.30;;;;;;;4.50;80.23;99258.00;108654;1276;37165;-75
2023/01/16 09:33:37;;;;;;;6.50;4.00;;;;;;;4.48;80.68;99250.46;108648;1259;36825;-75
2023/01/16 09:36:11;;;;;;;5.70;4.10;;;;;;;4.52;81.08;99248.10;108685;1265;37024;-74
2023/01/16 09:38:44;;;;;;;7.50;4.50;;;;;;;4.60;80.62;99244.73;108685;1257;37226;-75
2023/01/16 09:43:35;;;;;;;6.40;5.10;;;;;;;4.67;80.63;99238.11;108610;1276;37074;-74
2023/01/16 09:44:12;;;;;;;7.60;4.30;;;;;;;4.77;80.71;99236.06;108639;1258;37522;-74
2023/01/16 09:46:51;;;;;;;7.40;5.20;;;;;;;4.89;80.82;99236.55;108631;1253;36307;-74
2023/01/16 09:49:29;;;;;;;5.90;4.60;;;;;;;5.05;80.02;99235.99;108619;1252;38460;-73
2023/01/16 10:00:37;;;;;;;7.60;4.60;;;;;;;5.65;79.15;99225.95;108636;1257;36983;-75
2023/01/16 10:03:08;;;;;;;6.50;5.30;;;;;;;5.76;78.65;99222.92;108616;1271;37361;-75
2023/01/16 10:05:46;;;;;;;6.70;5.40;;;;;;;5.87;78.06;99221.33;108454;1277;39339;-74
2023/01/16 10:08:21;;;;;;;7.50;5.40;;;;;;;6.06;78.22;99217.19;108603;1257;37050;-74
2023/01/16 10:11:01;;;;;;;7.60;5.40;;;;;;;6.25;77.97;99214.91;108629;1260;37384;-73
2023/01/16 10:14:00;;;;;;;7.90;4.90;;;;;;;6.39;77.62;99212.98;108591;1268;36452;-75
2023/01/16 10:16:45;;;;;;;8.40;5.40;;;;;;;6.47;76.98;99208.52;108663;1257;37070;-74
2023/01/16 10:19:39;;;;;;;7.20;5.70;;;;;;;6.51;75.63;99208.50;108677;1258;36147;-74
2023/01/16 10:22:34;;;;;;;9.00;6.50;;;;;;;6.42;74.69;99204.86;108626;1265;37050;-75
2023/01/16 10:25:21;;;;;;;9.80;5.90;;;;;;;6.38;73.93;99200.20;108665;1257;37254;-74
2023/01/16 10:28:04;;;;;;;8.00;6.00;;;;;;;6.29;72.94;99194.13;108500;1260;36689;-74
2023/01/16 10:30:39;;;;;;;7.30;5.70;;;;;;;6.18;72.81;99193.52;108698;1276;37064;-74
2023/01/16 10:33:16;;;;;;;8.70;6.60;;;;;;;6.10;73.36;99184.66;108601;1265;36480;-75
2023/01/16 10:35:51;;;;;;;8.40;6.60;;;;;;;6.05;72.82;99178.98;108658;1260;37278;-75
2023/01/16 10:38:35;;;;;;;7.50;6.20;;;;;;;5.92;72.69;99174.27;108654;1270;36993;-75
2023/01/16 10:49:25;;;;;;;8.50;6.10;;;;;;;5.83;73.15;99169.91;108688;1258;37438;-76
2023/01/16 10:50:00;;;;;;;8.00;6.50;;;;;;;5.71;74.18;99153.25;108265;1271;37002;-74
2023/01/16 10:52:39;;;;;;;8.90;6.40;;;;;;;5.71;74.37;99152.04;108579;1258;38328;-74
2023/01/16 10:55:11;;;;;;;9.50;6.30;;;;;;;5.70;74.42;99149.98;108621;1253;36943;-75
2023/01/16 10:57:46;;;;;;;9.80;7.00;;;;;;;5.69;74.41;99144.29;108545;1276;38475;-75
2023/01/16 11:00:24;;;;;;;10.60;6.80;;;;;;;5.67;74.21;99139.17;108712;1257;36988;-75
2023/01/16 11:02:57;;;;;;;11.00;7.30;;;;;;;5.62;74.58;99134.02;108647;1265;36845;-75
2023/01/16 11:05:30;;;;;;;11.50;7.10;;;;;;;5.58;74.34;99129.85;108766;1276;36983;-75
2023/01/16 11:08:11;;;;;;;11.30;7.20;;;;;;;5.53;74.21;99123.98;108762;1276;36957;-75
2023/01/16 11:10:44;;;;;;;11.80;7.00;;;;;;;5.46;74.75;99120.79;108701;1257;36992;-74
2023/01/16 11:19:20;;;;;;;8.40;7.30;;;;;;;5.54;75.35;99113.23;108637;1276;37078;-75
2023/01/16 11:21:58;;;;;;;10.20;7.10;;;;;;;5.57;74.78;99115.17;108521;1258;37215;-75
2023/01/16 11:24:35;;;;;;;11.70;7.60;;;;;;;5.57;75.09;99107.23;108561;1277;37133;-74
2023/01/16 11:27:15;;;;;;;11.30;7.60;;;;;;;5.56;74.65;99103.10;108587;1258;36999;-75
2023/01/16 11:29:57;;;;;;;9.80;7.30;;;;;;;5.54;74.92;99101.98;108701;1258;36532;-75
2023/01/16 11:32:48;;;;;;;12.60;7.60;;;;;;;5.50;74.70;99099.36;108648;1276;37178;-75
2023/01/16 11:35:20;;;;;;;11.00;7.10;;;;;;;5.48;74.93;99093.39;108654;1276;37249;-75
2023/01/16 11:37:52;;;;;;;10.00;7.40;;;;;;;5.49;75.11;99088.52;108474;1252;37454;-75
2023/01/16 11:40:25;;;;;;;10.10;7.60;;;;;;;5.50;74.81;99085.70;108629;1253;38933;-75
2023/01/16 11:46:04;;;;;;;11.80;7.80;;;;;;;5.46;74.68;99074.80;108188;1277;37185;-71
2023/01/16 11:48:55;;;;;;;11.70;7.70;;;;;;;5.41;74.29;99071.86;108555;1274;37364;-73
2023/01/16 11:51:33;;;;;;;10.00;7.50;;;;;;;5.34;74.36;99067.27;108672;1276;38648;-75
2023/01/16 11:54:10;;;;;;;9.70;7.10;;;;;;;5.26;74.21;99057.52;108422;1264;36904;-74
2023/01/16 11:57:00;;;;;;;10.70;7.10;;;;;;;5.21;74.02;99047.89;108674;1258;37028;-74
2023/01/16 12:00:11;;;;;;;9.20;7.10;;;;;;;5.17;74.28;99040.95;108652;1263;37127;-75
2023/01/16 12:03:02;;;;;;;8.60;6.80;;;;;;;5.16;74.14;99036.99;108477;1276;37180;-75
2023/01/16 12:05:54;;;;;;;9.20;7.00;;;;;;;5.14;74.01;99032.92;108677;1265;37125;-75
2023/01/16 12:08:44;;;;;;;9.70;7.00;;;;;;;5.11;74.12;99031.30;108430;1276;38822;-75
2023/01/16 12:11:19;;;;;;;10.60;7.20;;;;;;;5.08;74.06;99033.48;108638;1276;37069;-76
2023/01/16 12:17:06;;;;;;;10.00;7.40;;;;;;;5.03;74.59;99030.05;108691;1253;36965;-75
2023/01/16 12:20:07;;;;;;;9.70;7.20;;;;;;;5.03;74.45;99030.06;108660;1258;37109;-74
2023/01/16 12:23:09;;;;;;;11.10;8.00;;;;;;;5.02;74.43;99021.77;108511;1253;174944;-74
2023/01/16 12:25:46;;;;;;;12.70;8.60;;;;;;;5.00;74.48;99023.77;108650;1276;37118;-75
2023/01/16 12:28:30;;;;;;;13.00;9.00;;;;;;;4.96;74.53;99023.91;108622;1272;37227;-75
2023/01/16 12:31:34;;;;;;;11.70;8.60;;;;;;;4.94;74.84;99017.95;108672;1276;37221;-76
2023/01/16 12:34:21;;;;;;;11.30;8.00;;;;;;;4.93;75.32;99022.48;108610;1276;37154;-74
2023/01/16 12:37:10;;;;;;;10.90;8.40;;;;;;;4.97;75.43;99023.88;108655;1276;38139;-75
2023/01/16 12:39:48;;;;;;;10.10;8.50;;;;;;;5.01;75.66;99018.90;108674;1258;38847;-76
2023/01/16 12:45:33;;;;;;;12.60;9.00;;;;;;;5.04;75.27;99004.94;108494;1261;39293;-75
2023/01/16 12:48:34;;;;;;;14.30;9.40;;;;;;;5.07;75.40;99003.27;108714;1258;37664;-74
2023/01/16 12:51:21;;;;;;;14.10;9.50;;;;;;;5.09;75.16;98998.88;108704;1253;35976;-74
2023/01/16 12:54:41;;;;;;;12.30;9.30;;;;;;;5.03;75.19;98988.90;108451;1277;37091;-74
2023/01/16 12:57:43;;;;;;;14.60;9.50;;;;;;;4.92;75.38;98979.66;108477;1276;37361;-75
2023/01/16 13:00:16;;;;;;;15.20;10.10;;;;;;;4.89;75.97;98981.30;108680;1276;36989;-73
2023/01/16 13:02:51;;;;;;;17.20;11.10;;;;;;;4.92;76.12;98976.02;108692;1252;37196;-74
2023/01/16 13:05:24;;;;;;;16.00;11.30;;;;;;;4.94;76.24;98966.63;108675;1269;36010;-73
2023/01/16 13:07:58;;;;;;;15.90;11.20;;;;;;;4.95;76.27;98961.22;108516;1261;37288;-73